sensor_id;sensor_type;location;lat;lon;timestamp;P1;durP1;ratioP1;P2;durP2;ratioP2
41436;SDS011;27178;49.460;10.850;2022-08-19T00:01:52;11.00;;;10.13;;
41436;SDS011;27178;49.460;10.850;2022-08-19T00:04:25;11.50;;;10.50;;
41436;SDS011;27178;49.460;10.850;2022-08-19T00:06:55;10.10;;;9.40;;
41436;SDS011;27178;49.460;10.850;2022-08-19T00:09:23;11.15;;;10.10;;
41436;SDS011;27178;49.460;10.850;2022-08-19T00:11:53;10.77;;;9.95;;
41436;SDS011;27178;49.460;10.850;2022-08-19T00:14:24;11.73;;;10.88;;
41436;SDS011;27178;49.460;10.850;2022-08-19T00:16:58;12.48;;;11.38;;
41436;SDS011;27178;49.460;10.850;2022-08-19T00:19:29;11.02;;;10.23;;
41436;SDS011;27178;49.460;10.850;2022-08-19T00:21:58;12.38;;;11.10;;
41436;SDS011;27178;49.460;10.850;2022-08-19T00:24:27;11.45;;;10.57;;
41436;SDS011;27178;49.460;10.850;2022-08-19T00:26:56;11.25;;;10.40;;
41436;SDS011;27178;49.460;10.850;2022-08-19T00:29:46;11.73;;;10.73;;
41436;SDS011;27178;49.460;10.850;2022-08-19T00:32:18;11.60;;;10.50;;
41436;SDS011;27178;49.460;10.850;2022-08-19T00:34:46;12.55;;;11.52;;
41436;SDS011;27178;49.460;10.850;2022-08-19T00:37:15;12.63;;;11.52;;
41436;SDS011;27178;49.460;10.850;2022-08-19T00:39:43;11.77;;;10.68;;
41436;SDS011;27178;49.460;10.850;2022-08-19T00:42:14;11.73;;;10.75;;
41436;SDS011;27178;49.460;10.850;2022-08-19T00:44:43;12.10;;;11.18;;
41436;SDS011;27178;49.460;10.850;2022-08-19T00:47:12;12.60;;;11.30;;
41436;SDS011;27178;49.460;10.850;2022-08-19T00:49:43;11.90;;;10.98;;
41436;SDS011;27178;49.460;10.850;2022-08-19T00:52:18;11.98;;;11.10;;
41436;SDS011;27178;49.460;10.850;2022-08-19T00:54:50;11.80;;;10.77;;
41436;SDS011;27178;49.460;10.850;2022-08-19T00:57:27;12.13;;;11.02;;
41436;SDS011;27178;49.460;10.850;2022-08-19T00:59:57;12.63;;;11.52;;
41436;SDS011;27178;49.460;10.850;2022-08-19T01:02:30;12.35;;;11.38;;
41436;SDS011;27178;49.460;10.850;2022-08-19T01:05:00;12.23;;;11.30;;
41436;SDS011;27178;49.460;10.850;2022-08-19T01:07:30;12.45;;;11.48;;
41436;SDS011;27178;49.460;10.850;2022-08-19T01:10:03;11.55;;;10.65;;
41436;SDS011;27178;49.460;10.850;2022-08-19T01:12:35;12.10;;;11.10;;
41436;SDS011;27178;49.460;10.850;2022-08-19T01:15:04;12.30;;;11.30;;
41436;SDS011;27178;49.460;10.850;2022-08-19T01:17:35;13.15;;;12.07;;
41436;SDS011;27178;49.460;10.850;2022-08-19T01:20:08;14.05;;;12.85;;
41436;SDS011;27178;49.460;10.850;2022-08-19T01:22:40;13.23;;;12.18;;
41436;SDS011;27178;49.460;10.850;2022-08-19T01:25:13;13.52;;;12.43;;
41436;SDS011;27178;49.460;10.850;2022-08-19T01:27:44;13.90;;;12.80;;
41436;SDS011;27178;49.460;10.850;2022-08-19T01:30:20;14.05;;;12.85;;
41436;SDS011;27178;49.460;10.850;2022-08-19T01:32:59;13.20;;;12.10;;
41436;SDS011;27178;49.460;10.850;2022-08-19T01:35:29;14.38;;;13.18;;
41436;SDS011;27178;49.460;10.850;2022-08-19T01:38:00;13.65;;;12.55;;
41436;SDS011;27178;49.460;10.850;2022-08-19T01:40:35;14.65;;;13.45;;
41436;SDS011;27178;49.460;10.850;2022-08-19T01:43:06;14.25;;;13.15;;
41436;SDS011;27178;49.460;10.850;2022-08-19T01:45:35;13.43;;;12.23;;
41436;SDS011;27178;49.460;10.850;2022-08-19T01:48:06;14.52;;;13.25;;
41436;SDS011;27178;49.460;10.850;2022-08-19T01:50:36;13.80;;;12.60;;
41436;SDS011;27178;49.460;10.850;2022-08-19T01:53:08;14.10;;;12.98;;
41436;SDS011;27178;49.460;10.850;2022-08-19T01:55:39;13.93;;;12.73;;
41436;SDS011;27178;49.460;10.850;2022-08-19T01:58:11;14.05;;;12.85;;
41436;SDS011;27178;49.460;10.850;2022-08-19T02:00:42;14.30;;;13.13;;
41436;SDS011;27178;49.460;10.850;2022-08-19T02:03:11;13.85;;;12.75;;
41436;SDS011;27178;49.460;10.850;2022-08-19T02:05:40;14.60;;;13.40;;
41436;SDS011;27178;49.460;10.850;2022-08-19T02:08:11;14.80;;;13.48;;
41436;SDS011;27178;49.460;10.850;2022-08-19T02:10:40;15.65;;;14.35;;
41436;SDS011;27178;49.460;10.850;2022-08-19T02:13:10;14.48;;;13.23;;
41436;SDS011;27178;49.460;10.850;2022-08-19T02:15:40;15.05;;;13.73;;
41436;SDS011;27178;49.460;10.850;2022-08-19T02:18:08;14.38;;;13.18;;
41436;SDS011;27178;49.460;10.850;2022-08-19T02:20:37;14.95;;;13.65;;
41436;SDS011;27178;49.460;10.850;2022-08-19T02:23:07;14.68;;;13.48;;
41436;SDS011;27178;49.460;10.850;2022-08-19T02:25:40;14.60;;;13.38;;
41436;SDS011;27178;49.460;10.850;2022-08-19T02:28:10;14.98;;;13.77;;
41436;SDS011;27178;49.460;10.850;2022-08-19T02:30:44;15.45;;;14.05;;
41436;SDS011;27178;49.460;10.850;2022-08-19T02:33:14;15.02;;;13.82;;
41436;SDS011;27178;49.460;10.850;2022-08-19T02:35:42;14.20;;;13.10;;
41436;SDS011;27178;49.460;10.850;2022-08-19T02:38:11;13.77;;;12.60;;
41436;SDS011;27178;49.460;10.850;2022-08-19T02:40:58;14.02;;;12.95;;
41436;SDS011;27178;49.460;10.850;2022-08-19T02:43:28;14.07;;;12.93;;
41436;SDS011;27178;49.460;10.850;2022-08-19T02:45:59;13.65;;;12.45;;
41436;SDS011;27178;49.460;10.850;2022-08-19T02:48:28;15.07;;;13.80;;
41436;SDS011;27178;49.460;10.850;2022-08-19T02:50:58;15.00;;;13.80;;
41436;SDS011;27178;49.460;10.850;2022-08-19T02:53:26;13.38;;;12.35;;
41436;SDS011;27178;49.460;10.850;2022-08-19T02:55:57;13.32;;;12.23;;
41436;SDS011;27178;49.460;10.850;2022-08-19T02:58:25;13.02;;;12.02;;
41436;SDS011;27178;49.460;10.850;2022-08-19T03:00:55;12.35;;;11.45;;
41436;SDS011;27178;49.460;10.850;2022-08-19T03:03:24;13.65;;;12.55;;
41436;SDS011;27178;49.460;10.850;2022-08-19T03:06:02;13.32;;;12.18;;
41436;SDS011;27178;49.460;10.850;2022-08-19T03:08:36;12.85;;;11.75;;
41436;SDS011;27178;49.460;10.850;2022-08-19T03:11:06;14.20;;;13.10;;
41436;SDS011;27178;49.460;10.850;2022-08-19T03:13:41;13.05;;;12.05;;
41436;SDS011;27178;49.460;10.850;2022-08-19T03:16:10;13.25;;;12.15;;
41436;SDS011;27178;49.460;10.850;2022-08-19T03:18:40;13.55;;;12.45;;
41436;SDS011;27178;49.460;10.850;2022-08-19T03:21:09;14.32;;;13.18;;
41436;SDS011;27178;49.460;10.850;2022-08-19T03:23:42;14.30;;;13.10;;
41436;SDS011;27178;49.460;10.850;2022-08-19T03:26:12;14.68;;;13.27;;
41436;SDS011;27178;49.460;10.850;2022-08-19T03:28:42;14.50;;;13.27;;
41436;SDS011;27178;49.460;10.850;2022-08-19T03:31:17;14.88;;;13.60;;
41436;SDS011;27178;49.460;10.850;2022-08-19T03:34:08;15.07;;;13.77;;
41436;SDS011;27178;49.460;10.850;2022-08-19T03:36:38;16.55;;;15.15;;
41436;SDS011;27178;49.460;10.850;2022-08-19T03:39:09;15.02;;;13.77;;
41436;SDS011;27178;49.460;10.850;2022-08-19T03:41:41;15.38;;;14.05;;
41436;SDS011;27178;49.460;10.850;2022-08-19T03:44:13;15.95;;;14.55;;
41436;SDS011;27178;49.460;10.850;2022-08-19T03:46:45;14.88;;;13.68;;
41436;SDS011;27178;49.460;10.850;2022-08-19T03:49:15;15.30;;;14.00;;
41436;SDS011;27178;49.460;10.850;2022-08-19T03:51:45;15.65;;;14.27;;
41436;SDS011;27178;49.460;10.850;2022-08-19T03:54:16;16.77;;;15.35;;
41436;SDS011;27178;49.460;10.850;2022-08-19T03:56:47;16.08;;;14.77;;
41436;SDS011;27178;49.460;10.850;2022-08-19T03:59:18;15.63;;;14.32;;
41436;SDS011;27178;49.460;10.850;2022-08-19T04:01:51;14.25;;;13.10;;
41436;SDS011;27178;49.460;10.850;2022-08-19T04:04:20;15.90;;;14.55;;
41436;SDS011;27178;49.460;10.850;2022-08-19T04:06:49;16.00;;;14.55;;
41436;SDS011;27178;49.460;10.850;2022-08-19T04:09:18;16.27;;;14.95;;
41436;SDS011;27178;49.460;10.850;2022-08-19T04:11:50;15.05;;;13.75;;
41436;SDS011;27178;49.460;10.850;2022-08-19T04:14:21;14.65;;;13.25;;
41436;SDS011;27178;49.460;10.850;2022-08-19T04:16:51;16.13;;;14.77;;
41436;SDS011;27178;49.460;10.850;2022-08-19T04:19:19;16.98;;;15.25;;
41436;SDS011;27178;49.460;10.850;2022-08-19T04:21:48;15.90;;;14.57;;
41436;SDS011;27178;49.460;10.850;2022-08-19T04:24:19;16.98;;;15.48;;
41436;SDS011;27178;49.460;10.850;2022-08-19T04:26:50;16.55;;;15.15;;
41436;SDS011;27178;49.460;10.850;2022-08-19T04:29:19;17.48;;;15.88;;
41436;SDS011;27178;49.460;10.850;2022-08-19T04:31:51;16.08;;;14.57;;
41436;SDS011;27178;49.460;10.850;2022-08-19T04:34:22;16.90;;;15.45;;
41436;SDS011;27178;49.460;10.850;2022-08-19T04:36:53;15.57;;;14.27;;
41436;SDS011;27178;49.460;10.850;2022-08-19T04:39:24;15.95;;;14.55;;
41436;SDS011;27178;49.460;10.850;2022-08-19T04:42:16;16.42;;;14.98;;
41436;SDS011;27178;49.460;10.850;2022-08-19T04:45:03;16.30;;;14.85;;
41436;SDS011;27178;49.460;10.850;2022-08-19T04:47:34;16.23;;;14.63;;
41436;SDS011;27178;49.460;10.850;2022-08-19T04:50:17;17.00;;;15.60;;
41436;SDS011;27178;49.460;10.850;2022-08-19T04:52:46;16.58;;;15.07;;
41436;SDS011;27178;49.460;10.850;2022-08-19T04:55:18;15.50;;;14.20;;
41436;SDS011;27178;49.460;10.850;2022-08-19T04:57:48;16.17;;;14.80;;
41436;SDS011;27178;49.460;10.850;2022-08-19T05:00:17;15.38;;;14.07;;
41436;SDS011;27178;49.460;10.850;2022-08-19T05:02:45;15.15;;;13.85;;
41436;SDS011;27178;49.460;10.850;2022-08-19T05:05:15;14.55;;;13.35;;
41436;SDS011;27178;49.460;10.850;2022-08-19T05:07:43;14.65;;;13.35;;
41436;SDS011;27178;49.460;10.850;2022-08-19T05:10:12;14.60;;;13.32;;
41436;SDS011;27178;49.460;10.850;2022-08-19T05:12:40;15.20;;;13.80;;
41436;SDS011;27178;49.460;10.850;2022-08-19T05:15:10;14.43;;;13.23;;
41436;SDS011;27178;49.460;10.850;2022-08-19T05:17:38;16.38;;;14.80;;
41436;SDS011;27178;49.460;10.850;2022-08-19T05:20:28;15.32;;;14.02;;
41436;SDS011;27178;49.460;10.850;2022-08-19T05:23:14;16.42;;;14.82;;
41436;SDS011;27178;49.460;10.850;2022-08-19T05:25:47;15.77;;;14.32;;
41436;SDS011;27178;49.460;10.850;2022-08-19T05:28:16;16.88;;;15.35;;
41436;SDS011;27178;49.460;10.850;2022-08-19T05:30:47;18.40;;;16.70;;
41436;SDS011;27178;49.460;10.850;2022-08-19T05:33:17;16.48;;;15.02;;
41436;SDS011;27178;49.460;10.850;2022-08-19T05:35:46;15.35;;;13.80;;
41436;SDS011;27178;49.460;10.850;2022-08-19T05:38:15;14.85;;;13.45;;
41436;SDS011;27178;49.460;10.850;2022-08-19T05:40:43;14.30;;;13.15;;
41436;SDS011;27178;49.460;10.850;2022-08-19T05:43:15;14.27;;;13.07;;
41436;SDS011;27178;49.460;10.850;2022-08-19T05:45:43;15.20;;;13.93;;
41436;SDS011;27178;49.460;10.850;2022-08-19T05:48:13;15.75;;;14.18;;
41436;SDS011;27178;49.460;10.850;2022-08-19T05:50:44;14.93;;;13.68;;
41436;SDS011;27178;49.460;10.850;2022-08-19T05:53:13;16.40;;;14.82;;
41436;SDS011;27178;49.460;10.850;2022-08-19T05:55:43;16.25;;;14.85;;
41436;SDS011;27178;49.460;10.850;2022-08-19T05:58:11;15.88;;;14.48;;
41436;SDS011;27178;49.460;10.850;2022-08-19T06:00:39;16.45;;;14.85;;
41436;SDS011;27178;49.460;10.850;2022-08-19T06:03:10;15.23;;;13.95;;
41436;SDS011;27178;49.460;10.850;2022-08-19T06:05:40;15.20;;;13.80;;
41436;SDS011;27178;49.460;10.850;2022-08-19T06:08:17;15.20;;;13.77;;
41436;SDS011;27178;49.460;10.850;2022-08-19T06:11:11;15.52;;;14.02;;
41436;SDS011;27178;49.460;10.850;2022-08-19T06:13:42;17.30;;;15.70;;
41436;SDS011;27178;49.460;10.850;2022-08-19T06:16:11;15.05;;;13.70;;
41436;SDS011;27178;49.460;10.850;2022-08-19T06:18:45;16.80;;;15.05;;
41436;SDS011;27178;49.460;10.850;2022-08-19T06:21:15;14.70;;;13.30;;
41436;SDS011;27178;49.460;10.850;2022-08-19T06:23:43;16.00;;;14.40;;
41436;SDS011;27178;49.460;10.850;2022-08-19T06:26:14;15.18;;;13.75;;
41436;SDS011;27178;49.460;10.850;2022-08-19T06:28:42;14.80;;;13.40;;
41436;SDS011;27178;49.460;10.850;2022-08-19T06:31:13;12.75;;;11.75;;
41436;SDS011;27178;49.460;10.850;2022-08-19T06:33:42;13.60;;;12.15;;
41436;SDS011;27178;49.460;10.850;2022-08-19T06:36:17;12.63;;;11.52;;
41436;SDS011;27178;49.460;10.850;2022-08-19T06:38:51;13.57;;;12.48;;
41436;SDS011;27178;49.460;10.850;2022-08-19T06:41:19;12.70;;;11.60;;
41436;SDS011;27178;49.460;10.850;2022-08-19T06:43:48;12.95;;;11.75;;
41436;SDS011;27178;49.460;10.850;2022-08-19T06:46:19;14.15;;;12.98;;
41436;SDS011;27178;49.460;10.850;2022-08-19T06:48:49;13.90;;;12.70;;
41436;SDS011;27178;49.460;10.850;2022-08-19T06:51:21;14.25;;;12.95;;
41436;SDS011;27178;49.460;10.850;2022-08-19T06:53:57;13.85;;;12.50;;
41436;SDS011;27178;49.460;10.850;2022-08-19T06:56:26;14.02;;;12.85;;
41436;SDS011;27178;49.460;10.850;2022-08-19T06:59:00;13.48;;;12.30;;
41436;SDS011;27178;49.460;10.850;2022-08-19T07:01:29;13.63;;;12.43;;
41436;SDS011;27178;49.460;10.850;2022-08-19T07:03:57;13.85;;;12.65;;
41436;SDS011;27178;49.460;10.850;2022-08-19T07:06:28;13.80;;;12.60;;
41436;SDS011;27178;49.460;10.850;2022-08-19T07:09:11;13.85;;;12.65;;
41436;SDS011;27178;49.460;10.850;2022-08-19T07:11:44;13.10;;;11.95;;
41436;SDS011;27178;49.460;10.850;2022-08-19T07:14:14;12.93;;;11.88;;
41436;SDS011;27178;49.460;10.850;2022-08-19T07:16:45;13.95;;;12.77;;
41436;SDS011;27178;49.460;10.850;2022-08-19T07:19:16;12.82;;;11.73;;
41436;SDS011;27178;49.460;10.850;2022-08-19T07:21:46;12.85;;;11.75;;
41436;SDS011;27178;49.460;10.850;2022-08-19T07:24:17;11.95;;;10.05;;
41436;SDS011;27178;49.460;10.850;2022-08-19T07:26:47;11.18;;;10.25;;
41436;SDS011;27178;49.460;10.850;2022-08-19T07:29:17;11.60;;;10.60;;
41436;SDS011;27178;49.460;10.850;2022-08-19T07:31:51;12.25;;;11.25;;
41436;SDS011;27178;49.460;10.850;2022-08-19T07:34:25;11.43;;;10.45;;
41436;SDS011;27178;49.460;10.850;2022-08-19T07:36:56;11.23;;;10.23;;
41436;SDS011;27178;49.460;10.850;2022-08-19T07:39:25;12.38;;;11.38;;
41436;SDS011;27178;49.460;10.850;2022-08-19T07:42:00;11.93;;;10.88;;
41436;SDS011;27178;49.460;10.850;2022-08-19T07:44:32;12.48;;;10.98;;
41436;SDS011;27178;49.460;10.850;2022-08-19T07:47:02;12.48;;;11.38;;
41436;SDS011;27178;49.460;10.850;2022-08-19T07:49:31;12.30;;;11.13;;
41436;SDS011;27178;49.460;10.850;2022-08-19T07:52:03;12.63;;;11.55;;
41436;SDS011;27178;49.460;10.850;2022-08-19T07:54:35;13.10;;;11.85;;
41436;SDS011;27178;49.460;10.850;2022-08-19T07:57:05;11.10;;;9.95;;
41436;SDS011;27178;49.460;10.850;2022-08-19T07:59:35;12.07;;;11.07;;
41436;SDS011;27178;49.460;10.850;2022-08-19T08:02:03;11.35;;;10.45;;
41436;SDS011;27178;49.460;10.850;2022-08-19T08:04:32;12.23;;;11.13;;
41436;SDS011;27178;49.460;10.850;2022-08-19T08:07:19;11.15;;;10.15;;
41436;SDS011;27178;49.460;10.850;2022-08-19T08:10:11;12.15;;;11.05;;
41436;SDS011;27178;49.460;10.850;2022-08-19T08:12:47;10.77;;;9.88;;
41436;SDS011;27178;49.460;10.850;2022-08-19T08:15:35;11.02;;;10.13;;
41436;SDS011;27178;49.460;10.850;2022-08-19T08:18:08;11.32;;;10.35;;
41436;SDS011;27178;49.460;10.850;2022-08-19T08:20:37;12.18;;;11.07;;
41436;SDS011;27178;49.460;10.850;2022-08-19T08:23:08;9.95;;;9.15;;
41436;SDS011;27178;49.460;10.850;2022-08-19T08:25:53;11.73;;;10.75;;
41436;SDS011;27178;49.460;10.850;2022-08-19T08:28:23;11.93;;;10.93;;
41436;SDS011;27178;49.460;10.850;2022-08-19T08:30:55;10.55;;;9.68;;
41436;SDS011;27178;49.460;10.850;2022-08-19T08:33:25;11.98;;;10.90;;
41436;SDS011;27178;49.460;10.850;2022-08-19T08:36:00;10.73;;;9.82;;
41436;SDS011;27178;49.460;10.850;2022-08-19T08:38:31;11.13;;;10.23;;
41436;SDS011;27178;49.460;10.850;2022-08-19T08:41:09;10.98;;;9.98;;
41436;SDS011;27178;49.460;10.850;2022-08-19T08:43:45;11.38;;;10.38;;
41436;SDS011;27178;49.460;10.850;2022-08-19T08:46:19;11.23;;;10.25;;
41436;SDS011;27178;49.460;10.850;2022-08-19T08:48:59;10.68;;;9.75;;
41436;SDS011;27178;49.460;10.850;2022-08-19T08:51:35;10.55;;;9.55;;
41436;SDS011;27178;49.460;10.850;2022-08-19T08:54:10;10.45;;;9.55;;
41436;SDS011;27178;49.460;10.850;2022-08-19T08:56:39;11.90;;;10.80;;
41436;SDS011;27178;49.460;10.850;2022-08-19T08:59:12;11.05;;;10.05;;
41436;SDS011;27178;49.460;10.850;2022-08-19T09:01:48;10.30;;;9.50;;
41436;SDS011;27178;49.460;10.850;2022-08-19T09:04:16;10.82;;;9.85;;
41436;SDS011;27178;49.460;10.850;2022-08-19T09:06:47;11.13;;;10.13;;
41436;SDS011;27178;49.460;10.850;2022-08-19T09:09:26;10.63;;;9.73;;
41436;SDS011;27178;49.460;10.850;2022-08-19T09:12:00;11.00;;;10.02;;
41436;SDS011;27178;49.460;10.850;2022-08-19T09:14:39;10.35;;;9.45;;
41436;SDS011;27178;49.460;10.850;2022-08-19T09:17:17;11.18;;;10.23;;
41436;SDS011;27178;49.460;10.850;2022-08-19T09:19:51;11.40;;;10.40;;
41436;SDS011;27178;49.460;10.850;2022-08-19T09:22:22;10.63;;;9.73;;
41436;SDS011;27178;49.460;10.850;2022-08-19T09:24:54;10.90;;;10.00;;
41436;SDS011;27178;49.460;10.850;2022-08-19T09:27:23;11.10;;;10.10;;
41436;SDS011;27178;49.460;10.850;2022-08-19T09:30:09;9.48;;;8.77;;
41436;SDS011;27178;49.460;10.850;2022-08-19T09:32:41;10.65;;;9.65;;
41436;SDS011;27178;49.460;10.850;2022-08-19T09:35:09;10.10;;;9.27;;
41436;SDS011;27178;49.460;10.850;2022-08-19T09:37:39;11.15;;;10.15;;
41436;SDS011;27178;49.460;10.850;2022-08-19T09:40:11;9.48;;;8.68;;
41436;SDS011;27178;49.460;10.850;2022-08-19T09:42:41;10.02;;;9.02;;
41436;SDS011;27178;49.460;10.850;2022-08-19T09:45:18;10.70;;;9.68;;
41436;SDS011;27178;49.460;10.850;2022-08-19T09:47:49;10.25;;;9.35;;
41436;SDS011;27178;49.460;10.850;2022-08-19T09:50:21;10.15;;;9.13;;
41436;SDS011;27178;49.460;10.850;2022-08-19T09:52:50;10.13;;;9.32;;
41436;SDS011;27178;49.460;10.850;2022-08-19T09:55:25;9.63;;;8.55;;
41436;SDS011;27178;49.460;10.850;2022-08-19T09:57:57;10.80;;;9.90;;
41436;SDS011;27178;49.460;10.850;2022-08-19T10:00:27;9.57;;;8.68;;
41436;SDS011;27178;49.460;10.850;2022-08-19T10:02:56;9.52;;;8.43;;
41436;SDS011;27178;49.460;10.850;2022-08-19T10:05:26;10.30;;;9.40;;
41436;SDS011;27178;49.460;10.850;2022-08-19T10:08:14;10.52;;;9.43;;
41436;SDS011;27178;49.460;10.850;2022-08-19T10:10:47;10.18;;;9.27;;
41436;SDS011;27178;49.460;10.850;2022-08-19T10:13:18;10.40;;;9.50;;
41436;SDS011;27178;49.460;10.850;2022-08-19T10:15:52;9.23;;;8.43;;
41436;SDS011;27178;49.460;10.850;2022-08-19T10:18:23;9.48;;;8.65;;
41436;SDS011;27178;49.460;10.850;2022-08-19T10:20:52;9.35;;;8.57;;
41436;SDS011;27178;49.460;10.850;2022-08-19T10:23:29;8.30;;;7.50;;
41436;SDS011;27178;49.460;10.850;2022-08-19T10:26:00;8.75;;;8.15;;
41436;SDS011;27178;49.460;10.850;2022-08-19T10:28:30;8.20;;;7.57;;
41436;SDS011;27178;49.460;10.850;2022-08-19T10:31:02;8.05;;;7.40;;
41436;SDS011;27178;49.460;10.850;2022-08-19T10:33:33;8.60;;;7.90;;
41436;SDS011;27178;49.460;10.850;2022-08-19T10:36:19;8.50;;;7.80;;
41436;SDS011;27178;49.460;10.850;2022-08-19T10:38:49;8.95;;;8.25;;
41436;SDS011;27178;49.460;10.850;2022-08-19T10:41:24;8.93;;;8.13;;
41436;SDS011;27178;49.460;10.850;2022-08-19T10:43:53;8.18;;;7.57;;
41436;SDS011;27178;49.460;10.850;2022-08-19T10:46:29;8.40;;;7.70;;
41436;SDS011;27178;49.460;10.850;2022-08-19T10:48:59;7.78;;;7.18;;
41436;SDS011;27178;49.460;10.850;2022-08-19T10:51:28;7.93;;;7.32;;
41436;SDS011;27178;49.460;10.850;2022-08-19T10:54:15;8.77;;;7.97;;
41436;SDS011;27178;49.460;10.850;2022-08-19T10:56:58;8.18;;;7.50;;
41436;SDS011;27178;49.460;10.850;2022-08-19T10:59:26;8.25;;;7.55;;
41436;SDS011;27178;49.460;10.850;2022-08-19T11:02:02;7.45;;;6.82;;
41436;SDS011;27178;49.460;10.850;2022-08-19T11:04:32;9.18;;;8.38;;
41436;SDS011;27178;49.460;10.850;2022-08-19T11:07:01;8.23;;;7.50;;
41436;SDS011;27178;49.460;10.850;2022-08-19T11:09:30;8.60;;;7.90;;
41436;SDS011;27178;49.460;10.850;2022-08-19T11:12:01;9.55;;;8.80;;
41436;SDS011;27178;49.460;10.850;2022-08-19T11:14:30;8.77;;;8.00;;
41436;SDS011;27178;49.460;10.850;2022-08-19T11:16:59;8.43;;;7.72;;
41436;SDS011;27178;49.460;10.850;2022-08-19T11:19:28;8.00;;;7.35;;
41436;SDS011;27178;49.460;10.850;2022-08-19T11:21:56;8.20;;;7.55;;
41436;SDS011;27178;49.460;10.850;2022-08-19T11:24:29;8.45;;;7.75;;
41436;SDS011;27178;49.460;10.850;2022-08-19T11:27:05;7.38;;;6.78;;
41436;SDS011;27178;49.460;10.850;2022-08-19T11:29:37;8.23;;;7.55;;
41436;SDS011;27178;49.460;10.850;2022-08-19T11:32:06;8.48;;;7.78;;
41436;SDS011;27178;49.460;10.850;2022-08-19T11:34:38;7.63;;;7.03;;
41436;SDS011;27178;49.460;10.850;2022-08-19T11:37:06;8.63;;;7.80;;
41436;SDS011;27178;49.460;10.850;2022-08-19T11:39:35;7.53;;;6.93;;
41436;SDS011;27178;49.460;10.850;2022-08-19T11:42:06;8.02;;;7.32;;
41436;SDS011;27178;49.460;10.850;2022-08-19T11:44:48;8.10;;;7.50;;
41436;SDS011;27178;49.460;10.850;2022-08-19T11:47:17;7.63;;;7.03;;
41436;SDS011;27178;49.460;10.850;2022-08-19T11:49:45;8.52;;;7.82;;
41436;SDS011;27178;49.460;10.850;2022-08-19T11:52:13;7.95;;;7.32;;
41436;SDS011;27178;49.460;10.850;2022-08-19T11:54:42;6.97;;;6.47;;
41436;SDS011;27178;49.460;10.850;2022-08-19T11:57:11;19.13;;;17.23;;
41436;SDS011;27178;49.460;10.850;2022-08-19T11:59:41;19.63;;;17.92;;
41436;SDS011;27178;49.460;10.850;2022-08-19T12:02:09;19.80;;;17.88;;
41436;SDS011;27178;49.460;10.850;2022-08-19T12:04:38;16.48;;;15.13;;
41436;SDS011;27178;49.460;10.850;2022-08-19T12:07:06;13.38;;;12.27;;
41436;SDS011;27178;49.460;10.850;2022-08-19T12:09:35;12.57;;;11.40;;
41436;SDS011;27178;49.460;10.850;2022-08-19T12:12:08;9.43;;;8.63;;
41436;SDS011;27178;49.460;10.850;2022-08-19T12:14:37;9.68;;;8.88;;
41436;SDS011;27178;49.460;10.850;2022-08-19T12:17:06;8.82;;;8.02;;
41436;SDS011;27178;49.460;10.850;2022-08-19T12:19:35;7.82;;;7.22;;
41436;SDS011;27178;49.460;10.850;2022-08-19T12:22:04;7.53;;;6.93;;
41436;SDS011;27178;49.460;10.850;2022-08-19T12:24:33;7.18;;;6.57;;
41436;SDS011;27178;49.460;10.850;2022-08-19T12:27:02;6.75;;;6.25;;
41436;SDS011;27178;49.460;10.850;2022-08-19T12:29:39;7.18;;;6.57;;
41436;SDS011;27178;49.460;10.850;2022-08-19T12:32:08;6.55;;;6.03;;
41436;SDS011;27178;49.460;10.850;2022-08-19T12:34:37;6.38;;;5.88;;
41436;SDS011;27178;49.460;10.850;2022-08-19T12:37:06;6.75;;;6.25;;
41436;SDS011;27178;49.460;10.850;2022-08-19T12:39:36;8.23;;;7.63;;
41436;SDS011;27178;49.460;10.850;2022-08-19T12:42:06;7.72;;;7.13;;
41436;SDS011;27178;49.460;10.850;2022-08-19T12:44:35;9.52;;;8.73;;
41436;SDS011;27178;49.460;10.850;2022-08-19T12:47:08;13.63;;;9.50;;
41436;SDS011;27178;49.460;10.850;2022-08-19T12:49:38;11.32;;;9.90;;
41436;SDS011;27178;49.460;10.850;2022-08-19T12:52:21;10.00;;;9.10;;
41436;SDS011;27178;49.460;10.850;2022-08-19T12:54:51;10.70;;;9.73;;
41436;SDS011;27178;49.460;10.850;2022-08-19T12:57:21;12.55;;;11.45;;
41436;SDS011;27178;49.460;10.850;2022-08-19T12:59:59;11.52;;;10.55;;
41436;SDS011;27178;49.460;10.850;2022-08-19T13:02:32;11.90;;;10.88;;
41436;SDS011;27178;49.460;10.850;2022-08-19T13:05:05;13.02;;;11.93;;
41436;SDS011;27178;49.460;10.850;2022-08-19T13:07:37;13.20;;;12.02;;
41436;SDS011;27178;49.460;10.850;2022-08-19T13:10:07;17.23;;;12.63;;
41436;SDS011;27178;49.460;10.850;2022-08-19T13:12:38;13.48;;;12.27;;
41436;SDS011;27178;49.460;10.850;2022-08-19T13:15:08;14.60;;;13.23;;
41436;SDS011;27178;49.460;10.850;2022-08-19T13:17:39;13.43;;;12.30;;
41436;SDS011;27178;49.460;10.850;2022-08-19T13:20:08;12.55;;;11.45;;
41436;SDS011;27178;49.460;10.850;2022-08-19T13:22:38;14.38;;;12.95;;
41436;SDS011;27178;49.460;10.850;2022-08-19T13:25:06;13.93;;;12.73;;
41436;SDS011;27178;49.460;10.850;2022-08-19T13:27:36;13.93;;;12.57;;
41436;SDS011;27178;49.460;10.850;2022-08-19T13:30:05;14.63;;;13.43;;
41436;SDS011;27178;49.460;10.850;2022-08-19T13:32:54;15.30;;;14.00;;
41436;SDS011;27178;49.460;10.850;2022-08-19T13:35:41;12.80;;;11.57;;
41436;SDS011;27178;49.460;10.850;2022-08-19T13:38:12;13.23;;;12.02;;
41436;SDS011;27178;49.460;10.850;2022-08-19T13:40:41;14.18;;;12.88;;
41436;SDS011;27178;49.460;10.850;2022-08-19T13:43:10;13.35;;;12.25;;
41436;SDS011;27178;49.460;10.850;2022-08-19T13:45:48;13.80;;;12.68;;
41436;SDS011;27178;49.460;10.850;2022-08-19T13:48:20;14.38;;;13.18;;
41436;SDS011;27178;49.460;10.850;2022-08-19T13:50:49;13.55;;;12.45;;
41436;SDS011;27178;49.460;10.850;2022-08-19T13:53:18;13.20;;;12.13;;
41436;SDS011;27178;49.460;10.850;2022-08-19T13:55:46;21.05;;;19.23;;
41436;SDS011;27178;49.460;10.850;2022-08-19T13:58:17;25.00;;;22.98;;
41436;SDS011;27178;49.460;10.850;2022-08-19T14:00:45;18.30;;;16.83;;
41436;SDS011;27178;49.460;10.850;2022-08-19T14:03:15;16.35;;;14.77;;
41436;SDS011;27178;49.460;10.850;2022-08-19T14:05:44;14.25;;;13.05;;
41436;SDS011;27178;49.460;10.850;2022-08-19T14:08:13;16.88;;;12.77;;
41436;SDS011;27178;49.460;10.850;2022-08-19T14:10:42;14.93;;;12.80;;
41436;SDS011;27178;49.460;10.850;2022-08-19T14:13:12;12.50;;;11.40;;
41436;SDS011;27178;49.460;10.850;2022-08-19T14:15:42;12.77;;;11.68;;
41436;SDS011;27178;49.460;10.850;2022-08-19T14:18:11;13.05;;;11.95;;
41436;SDS011;27178;49.460;10.850;2022-08-19T14:20:39;12.07;;;10.98;;
41436;SDS011;27178;49.460;10.850;2022-08-19T14:23:10;11.32;;;10.38;;
41436;SDS011;27178;49.460;10.850;2022-08-19T14:25:40;10.07;;;9.20;;
41436;SDS011;27178;49.460;10.850;2022-08-19T14:28:08;9.77;;;8.88;;
41436;SDS011;27178;49.460;10.850;2022-08-19T14:30:37;10.32;;;9.40;;
41436;SDS011;27178;49.460;10.850;2022-08-19T14:33:05;9.73;;;8.93;;
41436;SDS011;27178;49.460;10.850;2022-08-19T14:35:35;8.65;;;7.95;;
41436;SDS011;27178;49.460;10.850;2022-08-19T14:38:04;8.80;;;8.00;;
41436;SDS011;27178;49.460;10.850;2022-08-19T14:40:35;8.23;;;7.55;;
41436;SDS011;27178;49.460;10.850;2022-08-19T14:43:05;8.45;;;7.80;;